Time;durP1;ratioP1;P1;durP2;ratioP2;P2;SDS_P1;SDS_P2;PMS_P1;PMS_P2;Temp;Humidity;BMP_temperature;BMP_pressure;BME280_temperature;BME280_humidity;BME280_pressure;Samples;Min_cycle;Max_cycle;Signal;HPM_P1;HPM_P2
2022/08/19 00:00:21;;;;;;;9.48;7.28;;;14.90;99.90;;;;;;5065195;28;20045;-75
2022/08/19 00:02:47;;;;;;;10.45;7.47;;;14.90;99.90;;;;;;5062718;28;20036;-75
2022/08/19 00:05:15;;;;;;;7.90;5.65;;;14.90;99.90;;;;;;5062624;28;20040;-76
2022/08/19 00:07:42;;;;;;;5.88;4.70;;;14.90;99.90;;;;;;5045114;28;20059;-75
2022/08/19 00:10:11;;;;;;;86.25;5.63;;;14.90;99.90;;;;;;5061678;28;20535;-75
2022/08/19 00:12:38;;;;;;;4.53;3.80;;;14.90;99.90;;;;;;5060875;28;20036;-76
2022/08/19 00:15:12;;;;;;;19.45;3.83;;;14.80;99.90;;;;;;5078679;28;20081;-75
2022/08/19 00:17:45;;;;;;;6.97;3.20;;;14.80;99.90;;;;;;5061025;28;20248;-75
2022/08/19 00:20:16;;;;;;;5.50;3.70;;;14.80;99.90;;;;;;5044872;28;20059;-76
2022/08/19 00:22:42;;;;;;;;;;;14.80;99.90;;;;;;5065105;28;20050;-76
2022/08/19 00:25:08;;;;;;;46.85;9.48;;;14.80;99.90;;;;;;5063098;28;19916;-76
2022/08/19 00:27:34;;;;;;;9.48;6.53;;;14.70;99.90;;;;;;5063116;28;20036;-75
2022/08/19 00:30:03;;;;;;;11.60;7.55;;;14.80;99.90;;;;;;5061477;28;20048;-76
2022/08/19 00:32:29;;;;;;;14.13;8.50;;;14.80;99.90;;;;;;5062754;28;20098;-76
2022/08/19 00:34:55;;;;;;;10.80;7.50;;;14.80;99.90;;;;;;5044586;28;20044;-75
2022/08/19 00:37:25;;;;;;;10.25;6.80;;;14.80;99.90;;;;;;5065216;28;20044;-75
2022/08/19 00:39:52;;;;;;;8.68;6.85;;;14.80;99.90;;;;;;5060888;28;20050;-76
2022/08/19 00:42:20;;;;;;;10.05;7.43;;;14.90;99.90;;;;;;5061395;28;20040;-76
2022/08/19 00:44:47;;;;;;;9.35;7.05;;;14.90;99.90;;;;;;5045582;28;20083;-75
2022/08/19 00:47:13;;;;;;;8.68;5.60;;;14.90;99.90;;;;;;5040493;28;20039;-75
2022/08/19 00:49:53;;;;;;;7.45;6.18;;;14.90;99.90;;;;;;5045428;28;20040;-75
2022/08/19 00:52:31;;;;;;;7.97;5.78;;;14.80;99.90;;;;;;5064621;28;20056;-75
2022/08/19 00:54:58;;;;;;;106.68;8.48;;;14.80;99.90;;;;;;5062593;28;20583;-75
2022/08/19 00:57:34;;;;;;;14.10;3.85;;;14.80;99.90;;;;;;5060286;28;20057;-75
2022/08/19 01:00:02;;;;;;;6.03;3.85;;;14.70;99.90;;;;;;5064007;28;20076;-75
2022/08/19 01:02:29;;;;;;;7.70;5.13;;;14.60;99.90;;;;;;5046649;28;20114;-74
2022/08/19 01:04:55;;;;;;;8.02;5.15;;;14.60;99.90;;;;;;5047445;28;20060;-75
2022/08/19 01:07:22;;;;;;;8.40;5.80;;;14.60;99.90;;;;;;5057331;28;20037;-75
2022/08/19 01:09:48;;;;;;;8.20;6.38;;;14.60;99.90;;;;;;5065345;28;20180;-75
2022/08/19 01:12:14;;;;;;;10.93;7.72;;;14.60;99.90;;;;;;5050805;28;20060;-75
2022/08/19 01:14:41;;;;;;;9.70;5.97;;;14.60;99.90;;;;;;5064882;28;20040;-75
2022/08/19 01:17:09;;;;;;;11.48;7.03;;;14.60;99.90;;;;;;5081180;28;20057;-75
2022/08/19 01:19:40;;;;;;;6.82;4.93;;;14.50;99.90;;;;;;5063117;28;20115;-75
2022/08/19 01:22:37;;;;;;;5.45;3.88;;;14.50;99.90;;;;;;5065854;28;20044;-75
2022/08/19 01:25:03;;;;;;;9.07;4.88;;;14.50;99.90;;;;;;5055306;28;20053;-75
2022/08/19 01:27:39;;;;;;;11.13;3.90;;;14.50;99.90;;;;;;5071929;28;20374;-75
2022/08/19 01:30:06;;;;;;;136.95;7.53;;;14.40;99.90;;;;;;5060098;28;20481;-75
2022/08/19 01:32:32;;;;;;;54.40;7.57;;;14.40;99.90;;;;;;5054144;28;20048;-75
2022/08/19 01:35:01;;;;;;;19.95;7.30;;;14.40;99.90;;;;;;5069869;28;20047;-75
2022/08/19 01:37:28;;;;;;;10.30;6.97;;;14.40;99.90;;;;;;5071550;28;20044;-74
2022/08/19 01:39:54;;;;;;;14.63;8.80;;;14.30;99.90;;;;;;5063905;28;20387;-75
2022/08/19 01:42:21;;;;;;;11.13;7.82;;;14.30;99.90;;;;;;5068892;28;20048;-75
2022/08/19 01:44:47;;;;;;;8.57;5.97;;;14.40;99.90;;;;;;5053257;28;20048;-75
2022/08/19 01:47:13;;;;;;;4.72;2.90;;;14.40;99.90;;;;;;5055669;28;20127;-75
2022/08/19 01:49:39;;;;;;;7.80;5.97;;;14.30;99.90;;;;;;5072375;28;20131;-75
2022/08/19 01:52:05;;;;;;;11.18;4.07;;;14.30;99.90;;;;;;5062855;28;20074;-75
2022/08/19 01:54:32;;;;;;;6.70;4.05;;;14.20;99.90;;;;;;5056863;28;20484;-75
2022/08/19 01:57:08;;;;;;;5.00;3.53;;;14.30;99.90;;;;;;5055621;28;20041;-75
2022/08/19 01:59:36;;;;;;;5.53;3.55;;;14.20;99.90;;;;;;5055035;28;20049;-75
2022/08/19 02:02:07;;;;;;;16.30;5.05;;;14.20;99.90;;;;;;5054515;28;20052;-74
2022/08/19 02:04:34;;;;;;;8.05;4.55;;;14.20;99.90;;;;;;5054367;28;20040;-74
2022/08/19 02:07:00;;;;;;;22.73;3.65;;;14.10;99.90;;;;;;5071203;28;20044;-75
2022/08/19 02:09:26;;;;;;;11.13;6.22;;;14.10;99.90;;;;;;5054388;28;20036;-74
2022/08/19 02:11:53;;;;;;;9.93;6.72;;;14.10;99.90;;;;;;5055344;28;20543;-74
2022/08/19 02:14:19;;;;;;;10.77;7.93;;;14.10;99.90;;;;;;5067904;28;20124;-74
2022/08/19 02:16:44;;;;;;;11.77;7.75;;;14.10;99.90;;;;;;5065337;28;20128;-74
2022/08/19 02:19:10;;;;;;;9.30;6.38;;;14.10;99.90;;;;;;5069152;28;20523;-75
2022/08/19 02:21:37;;;;;;;7.18;4.80;;;14.10;99.90;;;;;;5063826;28;20434;-74
2022/08/19 02:24:03;;;;;;;16.80;4.60;;;14.10;99.90;;;;;;5049315;28;20060;-75
2022/08/19 02:26:29;;;;;;;38.65;4.30;;;14.00;99.90;;;;;;5065858;28;20052;-75
2022/08/19 02:28:55;;;;;;;9.18;5.70;;;13.90;99.90;;;;;;5059837;28;20102;-74
2022/08/19 02:31:24;;;;;;;8.43;5.97;;;13.90;99.90;;;;;;5051970;28;20044;-74
2022/08/19 02:33:51;;;;;;;11.55;7.65;;;14.00;99.90;;;;;;5049982;28;20052;-75
2022/08/19 02:36:17;;;;;;;14.25;8.35;;;14.10;99.90;;;;;;5068051;28;20040;-75
2022/08/19 02:38:44;;;;;;;11.63;7.82;;;14.10;99.90;;;;;;5067753;28;20066;-74
2022/08/19 02:41:19;;;;;;;7.32;5.13;;;14.10;99.90;;;;;;5054385;28;20110;-75
2022/08/19 02:43:45;;;;;;;8.50;4.90;;;14.10;99.90;;;;;;5051592;28;20056;-74
2022/08/19 02:46:25;;;;;;;12.93;7.07;;;14.10;99.90;;;;;;5052414;28;20055;-74
2022/08/19 02:48:53;;;;;;;9.30;5.57;;;14.10;99.90;;;;;;5074903;28;20048;-74
2022/08/19 02:51:22;;;;;;;45.00;4.68;;;14.10;99.90;;;;;;5054943;28;20206;-74
2022/08/19 02:53:48;;;;;;;11.15;2.42;;;14.10;99.90;;;;;;5069109;28;20431;-74
2022/08/19 02:56:14;;;;;;;17.95;7.72;;;14.00;99.90;;;;;;5055924;28;20097;-74
2022/08/19 02:58:41;;;;;;;13.45;7.80;;;14.10;99.90;;;;;;5039161;28;20045;-74
2022/08/19 03:01:07;;;;;;;14.55;8.35;;;14.10;99.90;;;;;;5035070;28;20080;-74
2022/08/19 03:03:33;;;;;;;18.50;10.07;;;14.10;99.90;;;;;;5034547;28;20037;-74
2022/08/19 03:06:14;;;;;;;21.00;10.63;;;14.10;99.90;;;;;;5034504;28;20136;-74
2022/08/19 03:08:45;;;;;;;23.02;12.07;;;14.10;99.90;;;;;;5046995;28;20098;-74
2022/08/19 03:11:21;;;;;;;58.05;10.10;;;14.20;99.90;;;;;;5043227;28;20052;-74
2022/08/19 03:13:48;;;;;;;44.80;9.40;;;14.20;99.90;;;;;;5049902;28;20055;-74
2022/08/19 03:16:16;;;;;;;12.48;7.18;;;14.20;99.90;;;;;;5047043;28;20044;-74
2022/08/19 03:18:42;;;;;;;20.15;9.77;;;14.20;99.90;;;;;;5051252;28;20476;-74
2022/08/19 03:21:07;;;;;;;13.13;7.13;;;14.20;99.90;;;;;;5064093;28;20119;-75
2022/08/19 03:23:34;;;;;;;5.07;3.40;;;14.20;99.90;;;;;;5047676;28;20084;-75
2022/08/19 03:26:04;;;;;;;64.15;6.28;;;14.00;99.90;;;;;;5062891;28;20123;-74
2022/08/19 03:28:31;;;;;;;153.73;10.20;;;13.90;99.90;;;;;;5040864;28;20427;-74
2022/08/19 03:31:08;;;;;;;67.57;10.80;;;13.80;99.90;;;;;;5050008;28;20052;-75
2022/08/19 03:33:35;;;;;;;24.88;9.40;;;13.80;99.90;;;;;;5070246;28;20076;-74
2022/08/19 03:36:09;;;;;;;26.85;9.98;;;13.80;99.90;;;;;;5041209;28;20052;-74
2022/08/19 03:38:43;;;;;;;57.90;10.73;;;13.90;99.90;;;;;;5058247;28;20044;-74
2022/08/19 03:41:12;;;;;;;44.72;9.10;;;13.90;99.90;;;;;;5038338;28;20452;-75
2022/08/19 03:43:40;;;;;;;104.00;8.38;;;13.90;99.90;;;;;;5061444;28;20045;-74
2022/08/19 03:46:12;;;;;;;102.93;10.43;;;13.90;99.90;;;;;;5070181;28;20523;-74
2022/08/19 03:48:39;;;;;;;24.95;9.65;;;13.80;99.90;;;;;;5046386;28;20041;-74
2022/08/19 03:51:06;;;;;;;71.32;5.78;;;13.90;99.90;;;;;;5050606;28;20055;-75
2022/08/19 03:53:34;;;;;;;6.05;3.35;;;13.90;99.90;;;;;;5062728;28;20048;-75
2022/08/19 03:56:01;;;;;;;4.63;3.30;;;13.80;99.90;;;;;;5054108;28;20110;-74
2022/08/19 03:58:29;;;;;;;17.48;3.47;;;13.70;99.90;;;;;;5062848;28;20044;-75
2022/08/19 04:00:56;;;;;;;70.38;5.90;;;13.70;99.90;;;;;;5068419;28;20056;-74
2022/08/19 04:03:24;;;;;;;87.93;6.20;;;13.60;99.90;;;;;;5061256;28;20044;-74
2022/08/19 04:05:50;;;;;;;36.22;4.70;;;13.60;99.90;;;;;;5051011;28;20045;-74
2022/08/19 04:08:19;;;;;;;21.05;4.55;;;13.50;99.90;;;;;;5067447;28;20051;-74
2022/08/19 04:10:47;;;;;;;11.98;5.55;;;13.00;99.90;;;;;;5053350;28;20508;-74
2022/08/19 04:13:14;;;;;;;9.13;5.20;;;13.50;99.90;;;;;;5048130;28;20041;-74
2022/08/19 04:15:42;;;;;;;8.50;4.60;;;13.50;99.90;;;;;;5056488;28;20044;-75
2022/08/19 04:18:11;;;;;;;3.67;2.58;;;13.60;99.90;;;;;;5054813;28;20080;-75
2022/08/19 04:20:47;;;;;;;7.30;3.67;;;13.50;99.90;;;;;;5062189;28;20488;-74
2022/08/19 04:23:14;;;;;;;17.55;6.00;;;13.50;99.90;;;;;;5049212;28;20520;-74
2022/08/19 04:25:42;;;;;;;160.93;10.60;;;13.60;99.90;;;;;;5040119;28;20390;-74
2022/08/19 04:28:10;;;;;;;29.65;5.60;;;13.60;99.90;;;;;;5053593;28;20048;-74
2022/08/19 04:30:47;;;;;;;93.80;7.28;;;13.60;99.90;;;;;;5063943;28;20445;-75
2022/08/19 04:33:15;;;;;;;53.17;7.55;;;13.60;99.90;;;;;;5066781;28;20423;-75
2022/08/19 04:35:43;;;;;;;41.08;8.13;;;13.70;99.90;;;;;;5068089;28;20051;-74
2022/08/19 04:38:10;;;;;;;18.63;8.43;;;13.70;99.90;;;;;;5065912;28;20036;-74
2022/08/19 04:43:26;;;;;;;45.22;7.93;;;13.80;99.90;;;;;;5067682;28;20564;-74
2022/08/19 04:45:52;;;;;;;14.15;7.65;;;13.80;99.90;;;;;;5073891;28;20427;-74
2022/08/19 04:48:25;;;;;;;20.10;8.90;;;13.90;99.90;;;;;;5030433;28;20045;-74
2022/08/19 04:50:57;;;;;;;19.48;9.38;;;13.90;99.90;;;;;;5049679;28;20068;-74
2022/08/19 04:53:28;;;;;;;15.73;8.90;;;14.00;99.90;;;;;;5060650;28;20907;-74
2022/08/19 04:55:59;;;;;;;18.83;8.48;;;14.00;99.90;;;;;;5053503;28;20134;-74
2022/08/19 04:58:27;;;;;;;12.90;7.55;;;14.00;99.90;;;;;;5061672;28;20068;-74
2022/08/19 05:00:53;;;;;;;14.65;7.75;;;14.10;99.90;;;;;;5045974;28;20060;-74
2022/08/19 05:03:20;;;;;;;13.45;7.53;;;14.10;99.90;;;;;;5053646;28;20048;-75
2022/08/19 05:05:50;;;;;;;8.63;5.75;;;14.10;99.90;;;;;;5071551;28;20131;-74
2022/08/19 05:08:21;;;;;;;7.63;4.97;;;14.10;99.90;;;;;;5070305;28;20032;-75
2022/08/19 05:10:50;;;;;;;6.05;4.30;;;14.00;99.90;;;;;;5056663;28;20051;-74
2022/08/19 05:13:19;;;;;;;13.65;3.75;;;13.90;99.90;;;;;;5064542;28;20423;-74
2022/08/19 05:15:53;;;;;;;9.95;4.50;;;13.90;99.90;;;;;;5064937;28;20068;-74
2022/08/19 05:23:53;;;;;;;12.70;6.82;;;14.10;99.90;;;;;;5072666;28;20381;-74
2022/08/19 05:26:19;;;;;;;15.52;8.35;;;14.10;99.90;;;;;;5053234;28;20473;-74
2022/08/19 05:28:45;;;;;;;21.80;10.15;;;14.20;99.90;;;;;;5071235;28;20041;-75
2022/08/19 05:31:10;;;;;;;20.08;9.98;;;14.30;99.90;;;;;;5058198;28;20492;-74
2022/08/19 05:33:37;;;;;;;24.45;11.88;;;14.40;99.90;;;;;;5035897;28;20087;-74
2022/08/19 05:36:04;;;;;;;24.48;12.23;;;14.60;99.90;;;;;;5056621;28;20620;-74
2022/08/19 05:38:30;;;;;;;26.50;12.05;;;14.70;99.90;;;;;;5047119;28;20059;-74
2022/08/19 05:40:56;;;;;;;26.42;12.80;;;14.90;99.90;;;;;;5057562;28;20119;-74
2022/08/19 05:43:22;;;;;;;23.63;11.38;;;15.00;99.90;;;;;;5042143;28;20078;-74
2022/08/19 05:45:48;;;;;;;22.90;12.30;;;15.10;99.90;;;;;;5037774;28;20051;-74
2022/08/19 05:48:14;;;;;;;21.35;11.85;;;15.20;99.90;;;;;;5047631;28;20512;-75
2022/08/19 05:50:41;;;;;;;25.80;12.23;;;15.30;99.90;;;;;;5071632;28;20076;-74
2022/08/19 05:53:08;;;;;;;23.25;12.60;;;15.40;99.90;;;;;;5039156;28;20048;-74
2022/08/19 05:55:37;;;;;;;24.85;12.50;;;15.50;99.90;;;;;;5072653;28;20076;-74
2022/08/19 05:58:03;;;;;;;27.13;12.80;;;15.60;99.90;;;;;;5059738;28;20055;-74
2022/08/19 06:00:31;;;;;;;24.55;12.93;;;15.70;99.90;;;;;;5051103;28;20096;-73
2022/08/19 06:03:02;;;;;;;24.88;12.75;;;15.80;99.90;;;;;;5038203;28;20048;-73
2022/08/19 06:05:32;;;;;;;25.35;13.02;;;15.90;99.90;;;;;;5052481;28;20056;-73
2022/08/19 06:07:58;;;;;;;24.15;12.70;;;16.00;99.90;;;;;;5060311;28;20043;-73
2022/08/19 06:10:25;;;;;;;21.42;12.07;;;16.00;99.90;;;;;;5066412;28;20041;-73
2022/08/19 06:12:52;;;;;;;23.83;12.45;;;16.10;99.90;;;;;;5037806;28;20052;-73
2022/08/19 06:15:18;;;;;;;21.67;12.13;;;16.30;99.90;;;;;;5038941;28;20036;-73
2022/08/19 06:17:44;;;;;;;20.25;11.57;;;16.40;99.90;;;;;;5065863;28;20085;-74
2022/08/19 06:20:14;;;;;;;19.85;11.70;;;16.50;99.90;;;;;;5063587;28;20478;-73
2022/08/19 06:22:41;;;;;;;22.27;12.80;;;16.60;99.90;;;;;;5038195;28;20518;-74
2022/08/19 06:25:08;;;;;;;19.65;11.30;;;16.80;99.90;;;;;;5052166;28;20095;-73
2022/08/19 06:27:35;;;;;;;21.85;12.52;;;17.00;99.90;;;;;;5056055;28;20525;-73
2022/08/19 06:30:03;;;;;;;22.67;12.70;;;17.00;99.90;;;;;;5070118;28;20040;-74
2022/08/19 06:32:30;;;;;;;18.95;11.80;;;17.20;99.90;;;;;;5057694;28;20152;-74
2022/08/19 06:34:55;;;;;;;20.73;12.02;;;17.30;99.90;;;;;;5035511;28;20170;-74
2022/08/19 06:37:22;;;;;;;19.67;11.75;;;17.40;99.90;;;;;;5036043;28;20525;-74
2022/08/19 06:39:49;;;;;;;20.92;12.18;;;17.50;99.90;;;;;;5059871;28;20499;-74
2022/08/19 06:42:18;;;;;;;19.08;12.38;;;17.60;99.90;;;;;;5048155;28;20047;-74
2022/08/19 06:44:47;;;;;;;18.30;11.93;;;17.80;99.90;;;;;;5055762;28;20043;-73
2022/08/19 06:47:17;;;;;;;20.65;12.55;;;17.90;99.90;;;;;;5054025;28;20045;-74
2022/08/19 06:49:43;;;;;;;22.13;12.38;;;18.00;99.90;;;;;;5048803;28;20044;-74
2022/08/19 06:52:11;;;;;;;19.52;12.60;;;18.20;99.90;;;;;;5070047;28;20044;-74
2022/08/19 06:54:39;;;;;;;20.77;12.15;;;18.30;99.90;;;;;;5071650;28;20052;-73
2022/08/19 06:57:06;;;;;;;18.80;11.88;;;18.30;99.90;;;;;;5070691;28;20040;-74
2022/08/19 06:59:33;;;;;;;20.05;11.77;;;18.40;99.90;;;;;;5064525;28;20056;-73
2022/08/19 07:02:04;;;;;;;16.73;11.60;;;18.50;99.90;;;;;;5061834;28;20043;-74
2022/08/19 07:04:32;;;;;;;18.45;12.52;;;18.60;99.90;;;;;;5070968;28;20392;-74
2022/08/19 07:07:07;;;;;;;17.45;12.15;;;18.80;99.90;;;;;;5054207;28;20052;-73
2022/08/19 07:09:36;;;;;;;15.77;11.45;;;18.90;99.90;;;;;;5065844;28;20478;-74
2022/08/19 07:12:05;;;;;;;18.13;11.15;;;19.10;99.90;;;;;;5054717;28;20186;-74
2022/08/19 07:14:30;;;;;;;18.13;12.15;;;19.20;99.90;;;;;;5053281;28;20074;-74
2022/08/19 07:16:57;;;;;;;19.98;11.52;;;19.40;99.90;;;;;;5070121;28;20387;-74
2022/08/19 07:19:27;;;;;;;14.63;10.75;;;19.50;99.90;;;;;;5066795;28;20381;-74
2022/08/19 07:21:54;;;;;;;18.35;11.48;;;19.70;99.90;;;;;;5048982;28;20040;-73
2022/08/19 07:24:23;;;;;;;12.95;10.63;;;19.90;99.90;;;;;;5059494;28;20055;-74
2022/08/19 07:26:51;;;;;;;17.75;11.70;;;19.90;99.90;;;;;;5046569;28;20138;-74
2022/08/19 07:29:17;;;;;;;16.00;11.20;;;20.00;99.90;;;;;;5068942;28;20123;-73
2022/08/19 07:31:43;;;;;;;15.65;11.35;;;20.20;99.90;;;;;;5060811;28;20153;-74
2022/08/19 07:34:13;;;;;;;16.95;11.38;;;20.30;99.90;;;;;;5037645;28;20083;-73
2022/08/19 07:36:41;;;;;;;20.13;11.63;;;20.30;99.90;;;;;;5034295;28;20045;-73
2022/08/19 07:39:11;;;;;;;16.80;11.88;;;20.50;99.90;;;;;;5034067;28;20037;-74
2022/08/19 07:41:37;;;;;;;16.35;11.40;;;20.60;99.90;;;;;;5045472;28;20170;-74
2022/08/19 07:44:05;;;;;;;21.10;13.13;;;20.70;99.90;;;;;;5065514;28;20037;-74
2022/08/19 07:46:37;;;;;;;21.20;13.40;;;20.90;99.90;;;;;;5063920;28;20049;-73
2022/08/19 07:49:05;;;;;;;21.02;14.30;;;21.00;99.90;;;;;;5052073;28;20041;-74
2022/08/19 07:51:31;;;;;;;18.77;12.98;;;21.10;99.90;;;;;;5056040;28;20040;-73
2022/08/19 07:53:56;;;;;;;20.27;12.80;;;21.20;99.90;;;;;;5051297;28;20051;-75
2022/08/19 07:56:23;;;;;;;18.25;12.98;;;21.30;99.90;;;;;;5070607;28;20177;-73
2022/08/19 07:58:51;;;;;;;18.85;11.27;;;21.30;99.90;;;;;;5069577;28;20393;-74
2022/08/19 08:01:24;;;;;;;16.48;11.27;;;21.50;99.90;;;;;;5062074;28;20142;-74
2022/08/19 08:09:34;;;;;;;13.90;10.45;;;21.90;99.90;;;;;;5060362;28;20373;-74
2022/08/19 08:12:05;;;;;;;14.45;9.50;;;21.90;99.90;;;;;;5066264;28;20373;-73
2022/08/19 08:14:36;;;;;;;11.70;9.07;;;22.10;99.90;;;;;;5051180;28;20093;-73
2022/08/19 08:17:03;;;;;;;9.70;8.45;;;22.10;99.90;;;;;;5052124;28;20067;-74
2022/08/19 08:19:30;;;;;;;10.98;8.55;;;22.10;99.90;;;;;;5052360;28;20064;-73
2022/08/19 08:21:58;;;;;;;13.15;9.38;;;22.20;99.90;;;;;;5035283;28;20496;-74
2022/08/19 08:24:26;;;;;;;12.50;9.48;;;22.30;99.90;;;;;;5047790;28;20040;-75
2022/08/19 08:26:52;;;;;;;11.65;9.40;;;22.30;99.90;;;;;;5064022;28;20133;-74
2022/08/19 08:29:19;;;;;;;11.80;9.40;;;22.40;99.90;;;;;;5060431;28;20472;-74
2022/08/19 08:31:46;;;;;;;13.18;9.65;;;22.50;99.90;;;;;;5048411;28;20485;-74
2022/08/19 08:34:14;;;;;;;13.43;10.02;;;22.50;99.90;;;;;;5050670;28;20040;-74
2022/08/19 08:36:44;;;;;;;13.02;9.50;;;22.60;99.90;;;;;;5049995;28;20393;-74
2022/08/19 08:39:13;;;;;;;12.30;9.80;;;22.70;99.90;;;;;;5048165;28;20094;-73
2022/08/19 08:41:54;;;;;;;11.32;8.93;;;22.70;99.90;;;;;;5061198;28;20116;-72
2022/08/19 08:44:34;;;;;;;13.10;9.43;;;22.90;99.90;;;;;;5060797;28;20048;-72
2022/08/19 08:47:03;;;;;;;10.57;8.50;;;23.20;99.90;;;;;;5051662;28;20481;-73
2022/08/19 08:49:48;;;;;;;9.40;8.20;;;23.30;99.90;;;;;;5054652;28;20036;-74
2022/08/19 08:52:36;;;;;;;11.27;9.00;;;23.40;99.90;;;;;;5039998;28;20048;-73
2022/08/19 08:55:27;;;;;;;12.15;8.55;;;23.50;99.90;;;;;;5061697;28;20385;-74
2022/08/19 08:57:56;;;;;;;13.02;9.35;;;23.50;99.90;;;;;;5055300;28;20057;-74
2022/08/19 09:00:26;;;;;;;12.73;9.20;;;23.50;99.90;;;;;;5055286;28;20114;-74
2022/08/19 09:02:53;;;;;;;14.23;9.65;;;23.50;99.90;;;;;;5055821;28;20040;-74
2022/08/19 09:05:21;;;;;;;14.60;10.38;;;23.60;99.90;;;;;;5044771;28;20044;-73
2022/08/19 09:08:02;;;;;;;13.55;10.05;;;23.60;99.90;;;;;;5045753;28;20419;-74
2022/08/19 09:10:39;;;;;;;13.43;10.05;;;23.70;99.90;;;;;;5067443;28;20048;-74
2022/08/19 09:13:33;;;;;;;12.80;10.30;;;23.80;99.90;;;;;;5068358;28;20389;-75
2022/08/19 09:16:07;;;;;;;11.73;9.73;;;23.90;99.90;;;;;;5066943;28;20385;-74
2022/08/19 09:18:42;;;;;;;12.43;9.77;;;24.00;99.90;;;;;;5056105;28;20473;-74
2022/08/19 09:21:08;;;;;;;13.60;9.50;;;24.20;99.90;;;;;;5041612;28;20170;-73
2022/08/19 09:23:36;;;;;;;12.80;8.95;;;24.30;99.90;;;;;;5048147;28;21871;-74
2022/08/19 09:26:07;;;;;;;14.13;9.77;;;24.40;99.90;;;;;;5066336;28;20044;-74
2022/08/19 09:28:33;;;;;;;11.60;9.18;;;24.40;99.90;;;;;;5056729;28;20048;-74
2022/08/19 09:31:00;;;;;;;10.13;9.00;;;24.50;99.90;;;;;;5073132;28;20051;-74
2022/08/19 09:33:26;;;;;;;9.32;8.32;;;24.70;99.90;;;;;;5085441;28;20040;-73
2022/08/19 09:36:03;;;;;;;12.23;8.57;;;25.00;99.90;;;;;;5068517;28;20040;-74
2022/08/19 09:38:29;;;;;;;9.10;7.90;;;25.20;99.90;;;;;;5052107;28;20045;-74
2022/08/19 09:40:54;;;;;;;10.00;7.90;;;25.30;99.90;;;;;;5036304;28;20128;-73
2022/08/19 09:43:21;;;;;;;12.40;8.73;;;25.40;99.90;;;;;;5037276;28;20603;-74
2022/08/19 09:45:47;;;;;;;8.77;7.88;;;25.40;99.90;;;;;;5054867;28;20047;-74
2022/08/19 09:48:14;;;;;;;9.45;8.23;;;25.40;99.90;;;;;;5072920;28;20072;-74
2022/08/19 09:50:40;;;;;;;10.13;8.10;;;25.40;99.90;;;;;;5072909;28;20557;-74
2022/08/19 09:53:07;;;;;;;11.80;7.90;;;25.40;99.90;;;;;;5055844;28;20072;-74
2022/08/19 09:55:33;;;;;;;8.25;6.40;;;25.40;99.90;;;;;;5066857;28;20060;-75
2022/08/19 09:58:02;;;;;;;6.43;5.82;;;25.50;99.90;;;;;;5066006;28;20483;-74
2022/08/19 10:00:29;;;;;;;8.88;7.22;;;25.70;99.90;;;;;;5065440;28;20512;-74
2022/08/19 10:02:55;;;;;;;8.13;7.28;;;25.80;99.90;;;;;;5060603;28;20389;-74
2022/08/19 10:08:05;;;;;;;8.65;6.60;;;25.90;99.90;;;;;;5052627;28;20434;-74
2022/08/19 10:10:35;;;;;;;6.57;5.32;;;26.00;99.90;;;;;;5069203;28;20154;-74
2022/08/19 10:13:01;;;;;;;5.00;4.50;;;26.00;99.90;;;;;;5059050;28;20048;-74
2022/08/19 10:15:27;;;;;;;5.97;5.18;;;26.10;99.90;;;;;;5040254;28;20045;-74
2022/08/19 10:17:53;;;;;;;4.95;4.30;;;26.20;99.90;;;;;;5042634;28;20552;-74
2022/08/19 10:20:19;;;;;;;5.50;4.40;;;26.10;99.90;;;;;;5052416;28;20051;-74
2022/08/19 10:22:44;;;;;;;5.43;4.57;;;26.30;99.90;;;;;;5058407;28;20047;-74
2022/08/19 10:25:10;;;;;;;5.75;4.60;;;26.40;99.90;;;;;;5052232;28;20080;-73
2022/08/19 10:27:37;;;;;;;5.32;4.82;;;26.30;99.90;;;;;;5052050;28;20041;-73
2022/08/19 10:30:04;;;;;;;5.32;4.22;;;26.30;99.90;;;;;;5051746;28;20045;-74
2022/08/19 10:32:31;;;;;;;4.93;3.97;;;26.30;99.90;;;;;;5060846;28;20049;-73
2022/08/19 10:34:57;;;;;;;4.47;4.07;;;26.60;99.90;;;;;;5047955;28;20145;-74
2022/08/19 10:37:23;;;;;;;4.57;3.47;;;26.80;99.90;;;;;;5058797;28;20049;-74
2022/08/19 10:39:49;;;;;;;4.15;3.17;;;26.80;99.90;;;;;;5051277;28;20389;-73
2022/08/19 10:42:15;;;;;;;4.70;3.00;;;26.70;99.90;;;;;;5051889;28;20068;-74
2022/08/19 10:44:42;;;;;;;4.32;3.20;;;26.80;99.90;;;;;;5064809;28;20044;-74
2022/08/19 10:47:08;;;;;;;3.53;3.22;;;26.80;99.90;;;;;;5042229;28;20136;-73
2022/08/19 10:52:32;;;;;;;3.10;2.88;;;27.00;99.90;;;;;;5051821;28;20037;-73
2022/08/19 10:52:35;;;;;;;4.50;3.45;;;27.30;99.90;;;;;;5037269;28;20041;-74
2022/08/19 10:57:52;;;;;;;3.80;3.50;;;27.20;99.10;;;;;;5064589;28;20040;-74
2022/08/19 11:00:20;;;;;;;5.50;3.70;;;27.30;99.90;;;;;;5051029;28;20053;-74
2022/08/19 11:02:46;;;;;;;5.05;4.07;;;27.20;99.20;;;;;;5051091;28;20450;-74
2022/08/19 11:05:14;;;;;;;4.50;3.90;;;26.90;99.10;;;;;;5059042;28;20094;-74
2022/08/19 11:07:41;;;;;;;4.47;3.78;;;26.90;99.10;;;;;;5060191;28;20386;-73
2022/08/19 11:10:12;;;;;;;5.05;4.45;;;27.00;98.90;;;;;;5066843;28;20390;-74
2022/08/19 11:12:40;;;;;;;5.30;4.78;;;27.20;98.50;;;;;;5070791;28;20079;-74
2022/08/19 11:15:08;;;;;;;6.63;4.65;;;27.30;97.90;;;;;;5071127;28;20055;-74
2022/08/19 11:17:35;;;;;;;5.55;5.05;;;27.10;98.50;;;;;;5066156;28;20150;-73
2022/08/19 11:20:04;;;;;;;6.38;4.85;;;27.30;98.40;;;;;;5037922;28;20068;-74
2022/08/19 11:22:30;;;;;;;4.70;4.30;;;27.60;97.80;;;;;;5058104;28;20044;-73
2022/08/19 11:24:56;;;;;;;5.32;4.82;;;27.70;97.50;;;;;;5064708;28;20128;-74
2022/08/19 11:27:22;;;;;;;5.25;4.75;;;27.80;97.80;;;;;;5050069;28;20075;-75
2022/08/19 11:29:48;;;;;;;6.30;5.00;;;28.00;97.40;;;;;;5064144;28;20052;-74
2022/08/19 11:32:15;;;;;;;6.30;5.70;;;28.10;96.80;;;;;;5039040;28;20519;-74
2022/08/19 11:34:41;;;;;;;7.25;6.03;;;28.30;96.60;;;;;;5061098;28;20431;-73
2022/08/19 11:37:08;;;;;;;7.65;6.03;;;28.40;95.40;;;;;;5056437;28;20036;-74
2022/08/19 11:39:36;;;;;;;6.50;5.55;;;28.60;94.90;;;;;;5049277;28;20505;-74
2022/08/19 11:42:54;;;;;;;6.63;5.47;;;29.00;94.40;;;;;;5050626;28;20045;-73
2022/08/19 11:44:50;;;;;;;6.68;5.22;;;29.30;94.00;;;;;;5058167;28;20106;-74
2022/08/19 11:47:16;;;;;;;5.28;4.78;;;29.30;92.50;;;;;;5065204;28;20048;-74
2022/08/19 11:49:42;;;;;;;6.30;5.70;;;29.30;93.00;;;;;;5042191;28;20041;-74
2022/08/19 11:52:08;;;;;;;8.10;5.50;;;28.70;92.60;;;;;;5033844;28;20127;-74
2022/08/19 11:54:35;;;;;;;6.35;5.70;;;28.80;93.30;;;;;;5061782;28;20044;-73
2022/08/19 11:57:03;;;;;;;5.93;5.30;;;28.70;91.60;;;;;;5037449;28;20131;-74
2022/08/19 11:59:29;;;;;;;8.07;5.85;;;28.30;91.90;;;;;;5064626;28;20063;-74
2022/08/19 12:01:56;;;;;;;7.78;5.78;;;28.00;92.60;;;;;;5055561;28;20045;-74
2022/08/19 12:04:23;;;;;;;7.03;6.35;;;28.20;93.10;;;;;;5056139;28;20500;-74
2022/08/19 12:06:49;;;;;;;6.97;6.15;;;28.30;92.90;;;;;;5069524;28;20050;-74
2022/08/19 12:09:17;;;;;;;6.90;6.00;;;28.60;92.50;;;;;;5035342;28;20562;-73
2022/08/19 12:11:43;;;;;;;7.30;6.60;;;28.80;92.40;;;;;;5061149;28;20044;-73
2022/08/19 12:14:13;;;;;;;6.45;5.85;;;29.10;91.40;;;;;;5024836;28;20075;-74
2022/08/19 12:16:39;;;;;;;6.70;6.00;;;29.20;91.20;;;;;;5066865;28;20047;-74
2022/08/19 12:19:05;;;;;;;6.18;5.68;;;29.10;90.80;;;;;;5040210;28;20051;-74
2022/08/19 12:21:34;;;;;;;6.72;5.88;;;29.20;90.60;;;;;;5067836;28;20044;-73
2022/08/19 12:24:02;;;;;;;7.50;6.78;;;29.60;90.60;;;;;;5055006;28;20611;-74
2022/08/19 12:26:29;;;;;;;8.32;6.53;;;29.60;90.10;;;;;;5037576;28;20053;-74
2022/08/19 12:28:55;;;;;;;8.20;6.55;;;29.30;88.00;;;;;;5049411;28;20040;-73
2022/08/19 12:31:21;;;;;;;8.00;7.20;;;28.50;89.10;;;;;;5064370;28;20040;-74
2022/08/19 12:33:47;;;;;;;7.05;6.35;;;28.10;89.20;;;;;;5068782;28;20048;-73
2022/08/19 12:36:15;;;;;;;7.00;6.40;;;28.10;89.50;;;;;;5037349;28;20096;-74
2022/08/19 12:38:42;;;;;;;6.75;6.05;;;28.20;90.00;;;;;;5058701;28;20551;-74
2022/08/19 12:41:11;;;;;;;9.35;7.00;;;28.40;90.60;;;;;;5067551;28;20120;-74
2022/08/19 12:43:38;;;;;;;8.07;7.30;;;28.20;89.20;;;;;;5063074;28;20067;-74
2022/08/19 12:46:05;;;;;;;8.30;7.50;;;28.00;90.30;;;;;;5064961;28;20036;-75
2022/08/19 12:48:34;;;;;;;9.23;8.32;;;28.20;90.80;;;;;;5044485;28;20048;-74
2022/08/19 12:51:05;;;;;;;9.10;8.20;;;28.10;88.10;;;;;;5052353;28;20045;-74
2022/08/19 12:53:31;;;;;;;8.60;7.80;;;28.30;90.10;;;;;;5052918;28;20048;-74
2022/08/19 12:55:59;;;;;;;8.48;7.53;;;28.40;90.30;;;;;;5066582;28;20059;-74
2022/08/19 12:58:26;;;;;;;8.20;7.38;;;28.50;89.70;;;;;;5067578;28;20051;-74
2022/08/19 13:00:52;;;;;;;7.75;7.05;;;28.80;88.50;;;;;;5088002;28;20050;-74
2022/08/19 13:03:18;;;;;;;8.60;7.70;;;29.20;88.40;;;;;;5073869;28;20063;-75